Date,TemperatureHighF,TemperatureAvgF,TemperatureLowF,DewpointHighF,DewpointAvgF,DewpointLowF,HumidityHigh,HumidityAvg,HumidityLow,PressureMaxIn,PressureMinIn,WindSpeedMaxMPH,WindSpeedAvgMPH,GustSpeedMaxMPH,PrecipitationSumIn
2013-1-1,65.9,55.3,45.7,56.8,49.9,42.9,93,82,70,30.19,29.93,11,1,11,0.00
2013-1-2,59.1,54.9,50.0,54.0,52.4,47.2,96,91,82,30.15,29.89,8,1,9,0.06
2013-1-3,51.5,49.1,43.0,49.5,46.4,40.7,96,91,83,30.29,30.09,7,0,7,0.08
2013-1-4,53.7,42.4,32.6,43.9,37.7,30.8,96,84,60,30.38,30.27,10,1,12,0.01
2013-1-5,55.5,41.2,26.2,42.3,32.9,24.5,95,76,39,30.43,30.30,8,0,9,0.01
2013-1-6,55.5,48.5,42.4,46.0,42.5,38.8,90,80,62,30.30,30.10,18,2,18,0.00
2013-1-7,56.6,42.8,30.5,41.0,35.2,28.6,95,77,48,30.42,30.21,12,1,13,0.00
2013-1-8,60.8,49.4,33.2,48.3,41.9,30.9,93,76,61,30.42,30.33,7,1,7,0.00
2013-1-9,72.1,58.2,47.4,61.0,52.3,44.0,92,82,64,30.43,30.34,8,0,8,0.00
2013-1-10,74.4,60.4,47.1,59.4,53.9,45.7,99,81,54,30.46,30.33,12,1,14,0.00
2013-1-11,74.2,63.4,57.1,66.3,60.4,56.0,98,91,75,30.34,30.15,12,1,12,0.01
2013-1-12,80.8,67.5,56.3,65.1,60.3,54.9,97,80,53,30.20,30.09,12,2,14,0.00
2013-1-13,78.2,65.2,51.9,66.0,60.0,50.5,97,85,63,30.17,30.07,15,1,15,0.01
2013-1-14,80.1,68.4,58.6,65.8,61.4,56.7,96,79,60,30.17,30.07,19,3,19,0.00
2013-1-15,78.7,67.6,56.4,63.5,60.4,54.7,96,79,56,30.15,30.01,20,2,20,0.00
2013-1-16,82.0,70.0,61.4,65.0,62.0,58.9,94,77,50,30.03,29.92,22,3,27,0.00
2013-1-17,76.7,60.6,44.5,65.3,55.3,38.8,92,83,67,30.13,29.68,25,5,38,0.21
2013-1-18,55.3,43.6,32.6,39.9,32.0,25.6,94,67,32,30.51,30.13,20,2,22,0.01
2013-1-19,61.1,44.5,29.0,45.1,35.5,26.2,92,73,47,30.51,30.23,10,0,10,0.00
2013-1-20,67.5,49.0,33.6,44.0,36.8,31.8,96,68,31,30.23,30.05,15,2,15,0.00
2013-1-21,66.1,48.3,29.5,41.0,33.2,26.6,95,62,27,30.11,29.98,18,4,19,0.00
2013-1-22,54.1,44.3,35.1,27.2,23.3,20.6,67,44,29,30.29,30.07,18,3,18,0.00
2013-1-23,55.6,40.4,26.7,34.5,25.9,19.7,79,58,36,30.39,30.17,19,2,19,0.00
2013-1-24,66.0,51.3,34.3,45.9,32.8,12.0,84,52,27,30.46,30.09,21,4,21,0.00
2013-1-25,38.0,33.5,28.1,27.5,18.1,10.9,67,53,40,30.49,30.16,9,0,9,0.00
2013-1-26,62.4,46.3,35.2,39.6,32.8,26.8,82,61,36,30.33,30.12,8,0,8,0.00
2013-1-27,54.1,41.8,31.3,34.3,30.5,27.1,86,66,41,30.53,30.33,11,1,13,0.00
2013-1-28,63.7,47.8,39.3,51.7,41.3,32.5,92,78,64,30.48,30.30,7,0,7,0.00
2013-1-29,78.4,58.3,39.2,64.7,52.7,37.5,97,83,58,30.30,30.08,14,1,19,0.00
2013-1-30,80.3,70.2,52.3,66.6,63.4,48.2,93,80,58,30.09,29.55,28,6,31,0.44
2013-1-31,54.8,47.6,40.5,48.8,30.6,23.6,88,53,31,30.18,29.71,30,9,32,0.01
2013-2-1,53.6,44.3,28.4,32.5,22.5,9.7,75,45,18,30.38,30.12,28,5,28,0.00
2013-2-2,57.9,39.8,22.0,35.5,23.2,18.2,92,57,22,30.40,30.10,17,1,17,0.00
2013-2-3,62.0,50.0,37.5,38.4,33.8,27.9,80,56,34,30.11,29.92,26,6,27,0.00
2013-2-4,51.9,39.7,28.1,35.6,30.4,25.5,93,72,42,30.16,30.05,6,0,7,0.00
2013-2-5,68.7,49.4,30.0,48.3,40.0,28.0,95,73,44,30.07,29.95,21,3,21,0.00
2013-2-6,72.5,53.6,37.0,51.7,41.5,35.1,96,69,30,30.18,30.03,10,1,12,0.00
2013-2-7,52.2,47.8,42.3,48.8,45.4,38.3,95,91,82,30.18,29.83,16,2,16,2.19
2013-2-8,63.1,51.2,43.3,51.4,46.5,41.4,95,85,64,30.11,29.84,17,4,18,0.00
2013-2-9,64.3,46.8,31.7,44.8,33.0,24.7,94,64,24,30.33,30.10,10,0,10,0.00
2013-2-10,67.0,50.7,32.5,54.5,43.6,30.3,94,78,56,30.41,30.15,15,2,18,0.14
2013-2-11,69.3,60.5,53.8,64.3,58.5,52.1,97,93,83,30.24,30.04,18,4,19,1.19
2013-2-12,65.6,57.3,49.0,55.7,51.3,42.8,96,82,47,30.14,29.86,10,2,13,0.90
2013-2-13,61.0,52.3,48.4,57.2,49.3,43.0,97,90,72,29.91,29.72,25,4,25,0.17
2013-2-14,54.7,46.5,38.0,44.5,40.7,36.0,93,81,58,30.09,29.89,7,0,7,0.01
2013-2-15,64.2,46.6,31.0,47.2,36.8,29.5,100,73,38,30.13,29.96,11,0,11,0.00
2013-2-16,46.9,39.6,32.8,40.9,34.9,21.6,93,84,44,30.08,29.85,19,2,21,0.18
2013-2-17,47.9,36.3,27.2,24.4,18.3,13.3,80,51,26,30.32,30.07,24,4,24,0.00
2013-2-18,57.9,40.4,22.8,32.1,25.9,20.3,92,61,32,30.43,30.27,13,1,18,0.00
2013-2-19,53.6,44.4,35.7,51.7,41.1,29.1,96,88,71,30.27,29.99,14,2,15,0.21
2013-2-20,60.2,44.6,28.6,38.6,31.2,24.8,92,64,30,30.18,30.06,12,1,12,0.00
2013-2-21,65.2,48.1,31.2,41.0,33.6,27.3,93,61,33,30.22,30.08,11,0,11,0.00
2013-2-22,50.0,44.2,40.4,42.5,39.9,34.7,96,86,59,30.22,30.10,14,2,14,0.58
2013-2-23,46.6,43.3,39.7,45.8,42.3,38.6,97,96,96,30.10,29.83,9,1,10,0.83
2013-2-24,70.5,53.5,41.9,50.9,44.2,36.3,100,75,31,30.01,29.88,10,2,11,0.01
2013-2-25,48.4,44.4,40.7,44.3,37.9,34.5,95,79,61,30.10,29.95,13,2,14,0.09
2013-2-26,69.3,49.8,40.9,64.8,47.7,38.5,97,92,84,29.98,29.55,10,2,14,1.16
2013-2-27,62.5,51.3,42.3,46.2,41.3,37.5,91,70,47,29.90,29.76,21,6,21,0.00
2013-2-28,57.2,48.8,40.8,42.2,36.1,30.5,84,63,44,29.94,29.80,27,6,27,0.00
2013-3-1,55.3,45.6,32.8,38.2,32.2,28.1,85,61,43,29.99,29.87,15,3,16,0.00
2013-3-2,48.1,40.6,33.1,39.6,33.7,28.9,86,76,66,29.96,29.88,18,4,18,0.01
2013-3-3,48.7,39.4,33.7,31.2,27.9,24.2,82,65,42,30.05,29.93,15,2,16,0.00
2013-3-4,58.8,41.4,24.7,32.2,24.9,20.8,89,57,23,30.22,30.05,12,1,13,0.00
2013-3-5,69.8,53.1,36.4,56.4,43.7,31.5,92,72,49,30.12,29.69,25,4,25,0.14
2013-3-6,52.6,44.8,37.0,41.4,29.2,23.6,72,55,41,30.14,29.74,32,10,32,0.00
2013-3-7,60.8,43.6,27.6,37.1,31.4,24.9,92,66,36,30.26,30.13,15,1,18,0.00
2013-3-8,61.4,46.0,30.3,33.6,29.0,22.8,88,56,25,30.33,30.19,14,1,14,0.00
2013-3-9,65.7,46.7,28.1,39.7,33.4,25.8,94,65,32,30.36,30.23,8,0,12,0.00
2013-3-10,71.2,53.0,33.7,49.5,41.5,31.6,95,69,39,30.30,30.16,13,1,13,0.00
2013-3-11,73.0,59.4,43.1,57.8,48.3,32.3,92,67,51,30.21,29.87,17,2,19,0.00
2013-3-12,71.7,63.2,54.3,61.0,54.5,40.3,95,76,45,29.99,29.80,17,4,17,0.40
2013-3-13,64.2,52.9,38.4,40.2,32.3,25.0,87,49,25,30.17,29.98,24,5,27,0.00
2013-3-14,58.0,44.3,31.3,30.5,25.3,21.1,77,50,25,30.35,30.16,13,2,15,0.00
2013-3-15,71.7,52.1,31.4,42.5,34.9,24.9,89,57,32,30.26,30.00,22,3,22,0.00
2013-3-16,79.7,66.5,54.8,49.8,45.3,41.6,68,48,28,30.01,29.84,26,8,33,0.00
2013-3-17,76.8,66.4,55.6,56.5,52.0,46.2,82,61,43,30.02,29.92,21,5,23,0.00
2013-3-18,66.4,60.7,49.1,61.6,56.0,46.9,95,85,75,30.07,29.81,15,1,22,0.74
2013-3-19,74.2,59.9,50.0,54.8,44.1,27.6,97,65,21,30.03,29.85,18,4,20,0.00
2013-3-20,61.4,51.8,40.5,38.5,31.1,21.5,87,49,24,30.13,29.84,12,1,12,0.00
2013-3-21,56.3,46.8,36.2,32.5,23.3,13.9,73,42,20,29.98,29.82,29,4,29,0.00
2013-3-22,51.4,42.3,31.2,37.5,26.6,21.3,83,56,35,30.11,29.97,12,1,13,0.00
2013-3-23,50.6,46.0,40.2,48.8,43.3,34.8,95,90,78,30.06,29.90,12,1,14,0.28
2013-3-24,50.6,48.2,44.3,49.4,46.5,42.4,99,94,91,29.91,29.54,14,2,14,1.11
2013-3-25,52.0,45.9,40.1,44.7,31.7,23.8,96,60,38,30.00,29.61,36,11,36,0.00
2013-3-26,51.5,42.0,31.2,30.3,27.4,23.8,79,57,39,30.22,29.99,18,5,21,0.00
2013-3-27,58.6,43.8,28.1,32.7,28.8,24.9,90,59,31,30.30,30.19,17,2,19,0.00
2013-3-28,63.0,46.3,28.9,34.7,29.3,24.9,91,57,26,30.34,30.20,17,2,17,0.00
2013-3-29,67.5,50.2,30.4,41.5,32.0,27.3,93,56,23,30.37,30.20,12,1,12,0.00
2013-3-30,74.2,60.4,50.3,51.1,46.8,38.7,83,63,40,30.25,30.05,14,1,14,0.00
2013-3-31,77.5,64.7,58.7,60.9,55.1,49.0,93,72,48,30.06,29.85,26,5,26,0.13
2013-4-1,76.5,65.6,56.1,62.6,56.8,44.2,96,76,40,29.97,29.85,16,3,22,0.73
2013-4-2,74.3,59.4,44.3,50.7,45.1,41.6,94,63,32,30.15,29.96,18,2,18,0.00
2013-4-3,64.3,56.5,47.7,51.3,41.2,34.9,91,59,38,30.25,30.08,13,1,14,0.01
2013-4-4,54.2,47.6,43.0,45.8,43.9,41.3,94,87,64,30.23,29.92,12,2,14,0.54
2013-4-5,58.4,48.7,40.7,49.7,44.0,38.8,94,85,70,30.06,29.92,11,2,12,0.00
2013-4-6,74.9,56.7,36.8,50.6,41.4,35.2,97,64,28,30.23,30.05,12,1,12,0.00
2013-4-7,78.1,60.7,41.5,59.1,50.5,39.6,96,72,44,30.26,30.10,14,1,16,0.00
2013-4-8,82.0,67.3,50.8,60.8,56.1,49.1,96,71,41,30.19,30.08,14,2,16,0.00
2013-4-9,84.6,69.8,52.7,65.7,59.4,50.9,97,72,45,30.22,30.11,14,1,14,0.00
2013-4-10,85.9,71.9,56.7,66.7,61.7,55.0,96,73,45,30.16,29.99,16,2,16,0.00
2013-4-11,83.2,70.9,60.6,71.6,66.1,59.0,97,86,64,30.01,29.78,16,2,16,0.26
2013-4-12,81.6,73.2,62.9,72.4,63.4,46.3,95,74,38,29.86,29.70,25,6,26,0.26
2013-4-13,80.7,65.1,48.7,53.3,47.5,43.5,86,57,28,30.02,29.85,11,1,12,0.00
2013-4-14,73.5,60.8,49.5,60.8,55.5,47.8,97,84,55,30.09,29.86,23,1,26,0.26
2013-4-15,72.7,65.8,60.6,66.3,61.9,58.6,94,88,78,30.17,29.90,12,1,15,0.00
2013-4-16,82.3,69.6,58.0,66.6,61.5,56.9,97,78,52,30.27,30.16,9,0,9,0.00
2013-4-17,85.4,70.6,55.3,67.2,61.3,53.6,96,75,49,30.25,30.11,10,0,14,0.00
2013-4-18,84.0,71.6,61.0,71.4,64.3,59.2,96,79,52,30.14,29.99,16,1,16,0.01
2013-4-19,85.0,71.4,55.8,72.3,66.2,49.5,95,85,59,30.01,29.79,28,6,32,0.41
2013-4-20,68.2,56.7,48.6,49.5,45.7,40.5,93,70,37,30.25,29.94,17,2,17,0.00
2013-4-21,70.0,57.0,41.8,50.1,45.0,40.2,96,68,41,30.36,30.24,18,1,18,0.00
2013-4-22,70.4,58.7,48.2,49.8,39.4,30.0,80,51,30,30.32,30.16,18,2,19,0.00
2013-4-23,74.1,58.9,44.0,55.8,49.2,40.9,93,72,49,30.23,30.11,11,1,15,0.00
2013-4-24,80.7,67.0,54.5,61.5,57.6,51.3,94,74,49,30.18,30.03,16,2,16,0.00
2013-4-25,79.8,69.4,58.3,65.3,60.8,54.7,95,76,53,30.24,30.07,13,1,13,0.00
2013-4-26,79.6,63.6,48.8,60.0,52.5,45.7,94,71,39,30.41,30.23,12,1,12,0.00
2013-4-27,69.4,61.2,55.8,59.4,54.7,46.1,95,80,59,30.37,30.22,9,0,10,0.24
2013-4-28,71.3,63.4,56.4,68.1,60.6,51.3,95,91,83,30.23,30.01,7,0,8,1.12
2013-4-29,76.0,67.4,61.6,69.2,64.4,60.5,97,91,71,30.06,29.94,9,1,9,0.94
2013-4-30,77.3,66.7,61.7,67.9,63.2,60.0,97,89,68,30.11,29.96,10,0,11,0.02
2013-5-1,71.4,64.2,59.2,61.8,59.3,56.6,95,84,69,30.22,30.10,11,1,11,0.00
2013-5-2,71.8,66.3,62.4,63.8,61.3,58.8,92,84,73,30.20,30.12,12,1,12,0.00
2013-5-3,66.6,62.0,57.8,62.2,58.3,55.5,94,88,81,30.14,30.03,13,1,16,0.02
2013-5-4,63.7,59.5,54.2,59.3,54.5,48.7,94,84,69,30.03,29.88,16,2,16,0.12
2013-5-5,68.7,62.4,58.4,66.7,60.7,56.8,96,94,91,29.90,29.77,15,2,16,0.86
2013-5-6,71.0,61.8,53.3,62.4,53.6,46.7,96,77,47,29.94,29.81,16,3,17,0.00
2013-5-7,71.8,59.5,49.7,59.3,53.2,47.8,96,81,55,29.98,29.88,14,1,15,0.06
2013-5-8,80.0,64.9,50.5,61.0,55.1,48.7,96,73,43,30.03,29.94,16,3,19,0.01
2013-5-9,86.5,70.8,55.3,65.6,59.4,53.0,95,71,38,30.10,30.00,12,1,13,0.00
2013-5-10,86.6,73.1,57.5,67.2,62.1,55.8,96,72,42,30.09,29.96,17,2,17,0.00
2013-5-11,82.7,73.6,64.1,68.0,64.8,61.2,94,75,56,30.01,29.85,18,3,18,0.00
2013-5-12,80.0,71.6,60.2,66.1,56.3,43.7,93,62,33,30.03,29.84,20,3,24,0.00
2013-5-13,73.7,61.3,47.6,45.8,43.0,38.2,88,54,30,30.17,30.02,16,2,16,0.00
2013-5-14,78.0,61.7,42.5,50.2,44.1,39.5,92,58,29,30.28,30.14,14,1,14,0.00
2013-5-15,96.5,73.0,56.1,64.8,56.6,46.8,76,58,33,30.17,29.98,17,4,20,0.07
2013-5-16,82.1,71.9,62.5,68.7,63.0,58.1,92,74,58,30.07,29.98,12,2,12,0.00
2013-5-17,88.4,74.3,60.4,68.9,63.7,58.9,97,73,41,30.12,30.03,12,1,12,0.00
2013-5-18,82.5,72.8,63.2,70.5,66.3,61.5,96,81,62,30.13,30.04,12,1,12,0.06
2013-5-19,82.0,72.6,67.9,72.4,69.1,66.1,97,89,70,30.12,30.03,14,2,15,0.01
2013-5-20,85.6,75.1,68.6,73.4,70.1,66.1,97,85,62,30.11,30.01,12,1,12,0.01
2013-5-21,87.3,72.7,66.1,74.7,69.1,64.8,97,89,60,30.07,29.95,14,1,15,0.01
2013-5-22,86.8,73.4,62.2,71.7,67.3,61.3,99,83,54,30.03,29.89,14,1,14,0.00
2013-5-23,86.2,75.2,66.3,71.7,67.7,63.1,97,79,54,29.95,29.85,19,3,19,0.00
2013-5-24,82.5,73.4,61.8,63.8,54.7,41.2,85,55,30,30.17,29.89,20,3,20,0.00
2013-5-25,80.5,65.0,47.4,53.1,45.2,37.8,88,53,25,30.32,30.17,13,1,13,0.00
2013-5-26,84.6,67.1,50.8,57.5,53.1,48.8,94,65,32,30.28,30.15,11,1,11,0.00
2013-5-27,87.4,71.7,53.5,65.6,59.5,51.8,98,69,41,30.25,30.13,9,1,12,0.00
2013-5-28,86.5,73.8,59.4,68.9,64.1,57.9,97,74,48,30.24,30.16,13,1,13,0.00
2013-5-29,87.9,73.9,58.4,69.2,63.7,56.8,97,73,48,30.25,30.15,12,1,13,0.00
2013-5-30,89.2,74.8,58.5,71.9,65.9,57.1,98,76,52,30.27,30.14,12,1,12,0.00
2013-5-31,90.0,77.1,65.1,73.2,68.9,63.3,97,78,50,30.23,30.10,10,1,13,0.00
2013-6-1,90.0,76.9,65.1,72.5,68.2,63.9,98,77,49,30.16,30.03,13,1,14,0.00
2013-6-2,91.2,77.3,65.8,75.1,70.4,64.4,97,81,52,30.10,29.90,15,2,15,0.00
2013-6-3,88.0,78.5,72.4,77.4,73.3,70.9,97,85,60,29.95,29.84,14,2,18,0.35
2013-6-4,87.5,76.0,68.7,76.5,71.8,67.8,98,87,65,30.03,29.91,9,0,13,0.19
2013-6-5,86.6,75.1,70.8,77.2,72.5,69.3,97,92,70,30.04,29.94,16,1,18,0.78
2013-6-6,81.2,73.7,71.1,74.5,71.4,68.5,97,93,75,29.96,29.71,15,1,18,0.87
2013-6-7,85.8,75.6,70.8,75.7,71.8,69.6,97,89,68,29.86,29.53,20,5,20,1.76
2013-6-8,86.6,76.8,69.7,74.1,70.5,68.2,96,82,58,30.08,29.84,15,3,16,0.00
2013-6-9,81.6,74.4,70.3,76.9,72.6,68.8,98,94,79,30.14,30.05,17,0,22,1.26
2013-6-10,85.5,77.0,71.6,77.7,73.9,70.1,97,91,73,30.09,29.96,19,4,19,0.24
2013-6-11,89.6,78.5,69.4,78.8,74.0,68.2,97,87,66,30.04,29.92,19,3,19,0.01
2013-6-12,95.0,83.3,71.7,80.7,75.1,70.7,98,79,49,30.00,29.90,12,1,12,0.00
2013-6-13,94.2,84.0,74.2,78.4,75.0,72.9,97,76,52,29.92,29.69,27,5,27,0.00
2013-6-14,87.2,78.6,68.4,74.5,66.2,57.7,93,68,39,30.01,29.74,15,1,16,0.00
2013-6-15,87.5,74.9,60.2,69.3,63.7,57.8,96,71,39,30.13,30.00,9,0,10,0.00
2013-6-16,87.9,75.7,61.9,72.7,66.8,60.5,96,76,48,30.18,30.03,14,1,14,0.00
2013-6-17,90.2,75.7,66.8,75.9,70.4,64.7,95,84,58,30.08,29.94,25,1,27,0.28
2013-6-18,86.3,76.3,70.5,78.2,73.0,69.6,97,90,74,30.02,29.84,18,4,18,0.52
2013-6-19,80.5,75.3,70.1,75.8,72.6,68.1,96,91,82,30.07,29.88,12,1,12,1.00
2013-6-20,85.3,76.1,68.7,71.4,68.8,65.8,95,80,57,30.18,30.05,13,1,14,0.00
2013-6-21,85.9,74.6,63.4,68.1,63.9,59.2,97,73,43,30.22,30.13,12,1,16,0.00
2013-6-22,86.1,75.8,64.1,75.0,69.6,62.0,94,82,67,30.18,30.09,10,0,10,0.00
2013-6-23,86.1,77.0,69.8,76.8,73.2,68.7,97,89,67,30.20,30.11,11,0,12,0.91
2013-6-24,86.3,75.3,69.9,79.6,72.9,69.0,98,92,74,30.23,30.13,10,1,15,0.34
2013-6-25,89.0,77.4,69.8,77.3,72.5,68.9,98,86,61,30.17,30.04,11,1,12,0.03
2013-6-26,89.8,76.0,71.2,79.9,72.2,66.6,96,89,66,30.09,29.94,27,2,29,0.05
2013-6-27,91.5,80.9,73.2,79.2,74.8,70.4,97,83,62,29.97,29.77,22,5,25,0.01
2013-6-28,92.9,81.8,72.5,79.4,74.2,69.7,95,79,60,29.82,29.64,20,5,24,0.00
2013-6-29,84.0,77.8,73.5,76.0,72.8,69.2,93,85,74,29.75,29.67,18,4,18,0.00
2013-6-30,86.9,76.1,70.3,79.0,73.2,69.1,97,91,71,29.85,29.71,10,1,11,0.50
2013-7-1,81.0,74.4,69.0,76.5,72.2,68.1,97,93,79,29.98,29.81,11,1,11,0.74
2013-7-2,76.7,74.5,72.5,75.2,73.1,71.2,97,95,91,30.14,29.98,9,1,9,0.94
2013-7-3,82.5,76.2,73.4,78.2,74.4,72.0,97,94,85,30.20,30.11,10,0,12,0.33
2013-7-4,87.5,78.1,74.3,79.3,75.3,71.2,97,91,73,30.21,30.13,16,1,28,0.33
2013-7-5,87.0,77.3,74.2,79.9,75.0,72.9,98,93,74,30.22,30.16,13,0,13,0.35
2013-7-6,86.6,78.0,73.6,79.4,75.2,72.4,98,91,72,30.21,30.10,12,1,17,0.54
2013-7-7,91.2,80.9,73.6,79.8,75.3,72.3,98,84,62,30.18,30.07,12,1,14,0.00
2013-7-8,89.6,78.6,73.3,81.3,75.0,71.8,96,89,71,30.19,30.10,11,1,11,0.03
2013-7-9,92.2,79.7,73.1,80.5,75.4,71.9,97,87,65,30.18,30.07,17,1,17,0.00
2013-7-10,88.2,79.2,74.5,78.9,74.6,71.7,96,86,69,30.12,29.97,14,2,17,0.00
2013-7-11,90.0,78.7,72.6,79.2,74.0,71.1,97,86,63,29.99,29.85,14,2,17,0.13
2013-7-12,85.4,77.1,72.2,77.7,73.4,69.1,97,89,75,29.95,29.85,9,0,11,0.43
2013-7-13,83.8,74.8,70.8,77.3,72.0,68.5,96,91,75,30.06,29.93,10,0,12,2.68
2013-7-14,85.4,76.7,71.8,77.9,73.9,70.7,98,92,72,30.22,30.05,20,1,20,0.34
2013-7-15,89.5,78.7,72.9,79.5,74.8,71.5,97,88,67,30.26,30.19,9,0,12,0.01
2013-7-16,92.9,80.9,70.8,79.5,74.0,69.6,98,81,54,30.30,30.20,8,0,9,0.00
2013-7-17,94.3,78.2,71.5,80.8,73.3,69.0,97,86,57,30.23,30.10,21,0,23,0.36
2013-7-18,92.1,80.2,69.1,80.1,74.3,67.9,98,84,62,30.19,30.05,8,0,9,0.00
2013-7-19,89.8,79.8,71.6,78.1,74.6,70.2,97,85,63,30.13,29.99,10,0,10,0.00
2013-7-20,87.5,79.0,73.5,76.9,73.9,71.7,95,85,64,30.08,29.94,18,3,18,0.00
2013-7-21,89.3,79.5,74.5,79.7,75.3,73.3,96,88,70,30.05,29.92,13,2,15,0.32
2013-7-22,88.0,79.5,73.0,77.5,74.2,71.5,96,84,64,30.01,29.88,18,4,19,0.00
2013-7-23,91.0,81.3,74.5,76.8,74.2,72.0,93,80,57,29.92,29.79,10,4,18,0.00
2013-7-24,90.5,76.9,71.3,80.2,73.5,69.8,96,90,67,29.83,29.75,18,1,20,0.55
2013-7-25,91.9,79.8,70.3,77.3,73.1,69.4,97,82,57,30.00,29.78,8,0,9,0.00
2013-7-26,91.5,80.4,70.3,78.7,73.6,68.8,96,81,57,30.08,29.98,8,0,8,0.00
2013-7-27,86.9,78.8,73.9,78.5,74.8,70.3,97,88,72,30.04,29.90,13,1,16,0.00
2013-7-28,92.4,80.1,71.4,77.3,73.3,69.9,97,82,54,30.01,29.92,11,1,13,0.01
2013-7-29,91.0,77.2,71.9,80.1,74.0,70.4,97,90,63,30.15,30.00,7,0,23,0.69
2013-7-30,90.8,79.5,69.6,79.5,74.4,68.4,98,86,63,30.18,30.10,7,0,8,0.00
2013-7-31,82.9,76.2,72.6,79.0,74.3,71.4,97,94,85,30.14,30.00,18,0,18,0.17
2013-8-1,84.8,77.2,72.6,79.1,74.8,71.7,97,92,77,30.01,29.89,9,0,11,0.31
2013-8-2,89.5,79.6,73.2,80.0,75.8,71.9,97,89,67,30.04,29.92,8,0,10,0.00
2013-8-3,91.8,81.5,72.2,79.9,75.1,71.0,97,83,57,30.03,29.93,11,0,11,0.00
2013-8-4,93.6,81.8,72.7,80.9,75.2,71.2,96,82,59,30.00,29.90,8,0,9,0.00
2013-8-5,87.9,80.2,73.4,76.1,73.2,67.6,95,80,61,30.05,29.96,11,0,11,0.00
2013-8-6,87.8,75.6,69.0,77.9,71.8,67.0,96,89,69,30.05,29.96,15,0,16,0.92
2013-8-7,89.3,79.2,71.6,77.2,73.5,70.7,97,84,60,30.08,29.99,8,0,9,0.00
2013-8-8,92.8,81.0,70.6,78.7,74.0,69.4,97,81,55,30.06,29.98,7,0,8,0.00
2013-8-9,92.7,82.1,73.7,80.5,76.4,72.5,97,84,64,30.11,30.01,12,1,15,0.00
2013-8-10,95.0,83.4,72.5,79.8,75.8,71.3,97,80,56,30.14,30.05,11,1,12,0.00
2013-8-11,94.7,83.7,73.9,79.7,75.5,72.6,97,78,54,30.14,30.04,15,2,17,0.00
2013-8-12,95.3,83.3,74.3,80.7,76.6,72.9,97,82,58,30.08,29.95,11,1,12,0.00
2013-8-13,92.5,81.2,74.3,82.1,76.6,72.3,97,87,65,29.98,29.83,19,2,19,1.00
2013-8-14,84.7,78.1,72.7,76.1,73.3,70.6,95,86,68,30.02,29.85,10,1,12,0.01
2013-8-15,72.6,67.5,63.3,71.0,65.5,61.2,96,93,85,30.10,29.99,13,0,13,0.94
2013-8-16,69.2,67.0,65.9,68.0,65.5,64.3,97,95,93,30.11,30.03,11,0,12,0.75
2013-8-17,71.8,68.3,65.7,69.7,66.9,64.8,97,96,91,30.17,30.06,8,0,10,0.11
2013-8-18,88.9,75.7,69.3,79.2,72.7,68.1,98,91,70,30.20,30.10,10,0,10,0.11
2013-8-19,84.0,75.9,71.6,78.8,74.1,70.7,98,94,80,30.16,30.05,9,0,11,0.98
2013-8-20,87.5,76.9,72.6,79.4,74.3,71.3,98,92,72,30.17,30.08,10,0,11,0.07
2013-8-21,91.7,78.6,70.3,80.4,73.8,69.3,98,87,62,30.23,30.10,7,0,9,0.01
2013-8-22,93.6,79.3,70.1,78.8,73.4,68.6,97,84,56,30.16,30.01,12,0,12,0.57
2013-8-23,87.9,77.1,71.1,78.4,73.4,69.9,97,89,68,30.06,29.96,11,0,11,0.11
2013-8-24,81.7,74.9,68.6,73.3,71.0,66.8,97,88,73,30.24,30.02,11,0,12,0.00
2013-8-25,85.0,73.1,63.5,67.1,64.6,60.4,97,77,48,30.34,30.23,15,0,15,0.01
2013-8-26,85.9,72.0,60.7,72.3,64.8,58.9,95,80,52,30.29,30.13,11,0,11,0.00
2013-8-27,89.2,74.1,59.8,74.7,67.0,58.4,97,80,54,30.16,30.00,10,0,10,0.01
2013-8-28,91.3,77.7,66.1,75.9,70.3,64.6,97,80,54,30.04,29.94,11,1,12,0.00
2013-8-29,96.6,81.1,68.3,81.3,73.8,67.0,97,81,52,29.98,29.86,9,0,11,0.00
2013-8-30,89.0,79.3,73.3,77.3,74.1,70.8,94,85,65,30.03,29.92,8,0,8,0.00
2013-8-31,75.3,72.0,69.5,73.8,70.5,68.3,96,95,93,29.96,29.91,0,0,0,0.15
2013-9-1,92.7,81.1,71.8,81.0,75.6,70.6,98,85,61,29.94,29.82,8,1,14,0.01
2013-9-2,91.5,80.1,73.4,79.8,74.7,70.3,97,85,66,29.94,29.81,13,2,14,0.01
2013-9-3,91.3,78.6,71.5,78.3,73.7,70.0,97,86,63,29.97,29.84,18,2,19,0.54
2013-9-4,94.7,81.0,69.9,78.9,74.2,68.7,97,82,52,30.07,29.94,7,0,8,0.00
2013-9-5,93.4,81.1,71.2,77.6,72.9,69.7,97,79,47,30.10,30.01,6,0,8,0.01
2013-9-6,90.0,77.7,68.1,73.7,69.7,66.6,96,79,52,30.12,30.03,9,0,12,0.01
2013-9-7,90.0,75.7,63.2,74.4,67.5,61.8,97,78,47,30.11,29.97,10,0,10,0.00
2013-9-8,91.8,76.5,63.1,76.9,68.8,61.7,97,80,48,30.01,29.90,10,0,10,0.01
2013-9-9,93.3,79.2,66.3,76.4,71.0,65.1,97,79,50,30.13,29.97,8,0,8,0.00
2013-9-10,90.8,79.5,67.3,75.8,70.6,66.1,97,76,52,30.23,30.13,11,0,11,0.01
2013-9-11,92.6,75.5,62.9,75.4,68.8,61.5,97,82,48,30.21,30.08,4,0,11,0.00
2013-9-12,92.3,75.9,64.4,76.1,68.9,63.2,98,81,49,30.10,29.87,12,1,12,0.00
2013-9-13,92.6,79.1,69.2,74.2,69.9,66.2,96,76,45,29.88,29.74,9,0,10,0.00
2013-9-14,83.7,73.6,64.7,68.6,62.2,53.9,92,68,57,30.07,29.83,14,1,14,0.00
2013-9-15,92.3,77.0,64.8,75.5,69.1,61.8,93,78,50,30.16,30.06,10,0,11,0.00
2013-9-16,87.5,78.3,71.0,78.7,73.8,69.5,97,87,68,30.12,30.02,10,0,10,0.06
2013-9-17,83.1,73.9,64.3,71.6,65.5,59.6,97,77,55,30.24,30.08,15,1,15,0.00
2013-9-18,81.1,68.9,59.5,63.6,59.6,56.3,92,74,50,30.25,30.14,10,0,11,0.00
2013-9-19,87.7,70.2,55.0,67.4,60.5,53.6,97,75,45,30.18,30.08,9,0,9,0.00
2013-9-20,89.2,73.9,59.6,71.4,65.9,58.2,97,78,52,30.09,29.93,10,0,11,0.00
2013-9-21,85.9,75.0,66.1,72.2,69.1,64.3,96,83,59,29.96,29.70,15,2,17,0.18
2013-9-22,84.2,73.0,64.1,70.5,65.6,60.5,96,79,52,29.88,29.71,10,1,12,0.02
2013-9-23,83.3,68.9,56.4,66.0,60.7,55.0,97,78,48,30.05,29.88,9,0,10,0.01
2013-9-24,82.8,69.4,57.4,64.4,60.7,55.8,96,76,50,30.06,29.91,11,0,14,0.00
2013-9-25,79.1,68.7,63.9,67.0,63.7,61.5,96,85,62,29.92,29.81,14,0,14,0.37
2013-9-26,80.2,68.2,60.2,66.8,62.9,58.6,96,85,56,29.99,29.83,13,0,13,0.01
2013-9-27,79.8,67.0,57.3,62.9,58.8,55.3,95,77,51,30.13,29.99,14,1,16,0.00
2013-9-28,78.8,64.8,53.1,61.9,57.4,51.7,96,79,54,30.20,30.11,15,1,15,0.00
2013-9-29,76.5,65.5,56.2,61.4,57.8,54.0,93,78,55,30.14,30.02,6,0,10,0.00
2013-9-30,76.0,62.4,50.4,60.6,55.2,49.3,97,80,52,30.09,30.00,9,0,11,0.01
2013-10-1,83.3,65.6,50.4,63.2,57.0,49.2,97,77,43,30.16,30.05,10,0,11,0.00
2013-10-2,87.8,68.6,53.2,66.7,60.2,52.2,97,78,44,30.16,30.05,11,0,11,0.00
2013-10-3,63.6,63.5,63.5,61.2,61.1,60.6,92,92,92,30.13,30.12,0,0,0,0.00
2013-10-4,88.3,71.9,60.3,72.4,64.4,59.5,98,80,47,30.15,30.06,4,0,18,0.00
2013-10-5,89.1,72.9,58.8,69.6,64.2,57.9,97,77,46,30.13,30.02,5,0,10,0.00
2013-10-6,87.3,73.2,60.7,73.1,67.7,59.6,98,85,56,30.06,29.89,10,0,12,0.02
2013-10-7,77.6,75.1,71.1,76.0,73.5,69.5,97,95,90,29.92,29.79,11,0,11,0.20
2013-10-8,71.1,63.4,57.6,69.9,58.7,54.2,96,85,73,30.15,29.88,18,2,20,0.05
2013-10-9,77.4,65.1,56.6,61.2,56.9,53.1,95,76,56,30.16,30.06,15,2,16,0.00
2013-10-10,79.6,62.6,50.0,59.9,55.1,48.9,97,80,42,30.10,29.97,7,1,16,0.01
2013-10-11,84.8,68.9,57.8,65.8,60.9,56.1,95,79,45,30.02,29.90,15,2,16,0.00
2013-10-12,83.4,68.9,56.0,66.9,62.2,54.9,97,81,53,30.06,29.94,8,0,8,0.00
2013-10-13,77.6,69.6,62.3,66.6,64.6,60.6,96,85,68,30.16,30.05,13,1,13,0.00
2013-10-14,72.4,68.1,65.5,65.7,64.0,62.4,91,87,79,30.17,30.10,13,1,18,0.00
2013-10-15,79.0,67.0,56.6,62.4,57.5,53.0,93,74,43,30.14,30.01,15,1,15,0.00
2013-10-16,80.0,65.7,52.2,65.8,59.6,51.1,99,82,58,30.06,29.95,7,0,8,0.00
2013-10-17,84.0,72.2,61.1,68.7,65.6,60.0,97,81,58,29.99,29.87,15,2,16,0.00
2013-10-18,76.9,71.4,65.9,71.6,68.9,64.7,97,92,80,29.98,29.88,5,0,6,0.01
2013-10-19,79.5,70.7,62.3,70.0,63.5,54.2,97,80,52,29.95,29.88,11,2,14,0.11
2013-10-20,73.6,62.9,53.7,58.9,54.7,51.6,95,77,50,30.08,29.93,11,0,11,0.00
2013-10-21,72.4,57.8,49.6,59.7,53.6,48.2,96,87,60,30.13,30.01,6,0,8,0.00
2013-10-22,71.0,63.1,58.6,63.2,60.0,57.1,98,90,72,30.04,29.84,6,0,7,0.00
2013-10-23,73.0,63.1,49.7,61.8,49.3,36.0,97,66,27,30.07,29.77,27,5,27,0.00
2013-10-24,67.2,50.1,35.1,44.7,38.7,33.0,93,69,35,30.22,30.06,12,1,13,0.00
2013-10-25,61.2,49.5,36.5,43.8,38.6,33.6,94,70,37,30.37,30.16,15,1,18,0.00
2013-10-26,36.6,36.5,36.5,34.2,34.1,34.1,91,91,91,30.36,30.36,0,0,0,0.00
2013-10-27,76.1,54.5,37.3,55.4,45.7,35.7,94,75,45,30.16,30.07,8,1,14,0.00
2013-10-28,74.8,60.5,50.4,62.0,54.6,48.6,96,83,52,30.27,30.13,8,0,9,0.00
2013-10-29,78.1,60.0,46.2,58.2,52.9,45.1,97,80,49,30.35,30.24,11,0,13,0.00
2013-10-30,80.5,62.2,48.8,60.2,54.5,47.4,96,79,48,30.33,30.18,13,1,14,0.00
2013-10-31,81.0,65.8,49.8,67.6,60.2,48.7,97,83,58,30.21,29.96,16,1,17,0.00
2013-11-1,79.7,69.7,65.4,70.3,66.3,64.2,97,89,71,29.97,29.74,22,4,22,0.45
2013-11-2,74.9,63.3,49.3,64.4,54.9,46.1,96,77,40,30.00,29.76,19,2,19,0.00
2013-11-3,67.8,52.2,40.0,46.9,42.9,38.6,96,74,37,30.32,29.99,13,1,13,0.00
2013-11-4,65.3,51.0,39.9,42.7,38.7,35.7,94,66,35,30.49,30.30,13,1,16,0.00
2013-11-5,69.0,53.7,40.4,54.3,46.0,35.5,88,76,56,30.48,30.36,13,1,16,0.00
2013-11-6,74.8,60.6,50.8,62.3,55.1,48.5,95,83,64,30.37,30.11,9,0,9,0.00
2013-11-7,77.2,62.6,52.7,65.8,55.8,38.9,97,80,49,30.11,29.95,19,2,19,0.00
2013-11-8,63.1,49.0,35.9,39.2,35.4,30.1,93,64,29,30.33,30.11,17,1,17,0.00
2013-11-9,65.8,48.1,31.6,45.5,37.7,29.8,94,72,33,30.38,30.24,7,0,8,0.00
2013-11-10,71.9,54.7,42.4,49.1,43.1,36.3,93,70,28,30.27,30.14,14,1,14,0.00
2013-11-11,67.0,51.3,38.3,41.6,38.3,35.1,94,65,34,30.33,30.18,12,0,12,0.00
2013-11-12,74.8,51.3,34.5,48.0,38.2,31.7,96,67,29,30.42,30.02,31,4,36,0.00
2013-11-13,50.5,37.1,26.6,31.7,24.1,16.9,90,63,28,30.56,30.41,17,2,17,0.00
2013-11-14,62.0,39.8,21.3,36.7,28.5,19.1,92,70,28,30.53,30.34,9,0,10,0.00
2013-11-15,63.6,50.5,35.2,55.5,45.6,32.4,96,84,67,30.35,30.17,6,0,7,0.01
2013-11-16,77.3,61.0,52.4,62.7,56.3,50.7,97,86,57,30.25,30.14,8,0,9,0.00
2013-11-17,74.6,62.8,49.3,68.3,59.9,48.0,97,91,75,30.18,29.97,10,0,13,0.00
2013-11-18,86.8,73.0,56.9,71.5,59.7,36.6,96,68,36,29.97,29.82,23,4,23,0.01
2013-11-19,63.6,51.2,37.7,39.5,32.2,25.7,92,52,24,30.22,29.96,17,1,19,0.00
2013-11-20,47.2,47.2,47.1,32.3,32.3,32.2,56,56,56,30.22,30.21,1,0,2,0.00
2013-11-21,64.1,56.2,49.8,53.3,47.7,41.7,80,73,66,30.42,30.33,4,1,12,0.00
2013-11-22,76.3,63.1,52.7,65.0,58.2,49.7,96,85,68,30.34,30.14,10,1,16,0.00
2013-11-23,73.8,62.9,54.0,64.5,58.2,39.7,97,85,56,30.17,30.03,14,2,15,0.00
2013-11-24,53.7,42.0,29.0,39.7,21.1,13.5,59,44,26,30.53,30.16,20,3,21,0.00
2013-11-25,50.9,38.8,23.4,30.3,19.3,10.8,71,47,29,30.55,30.28,9,1,11,0.00
2013-11-26,69.9,56.1,43.3,67.9,51.7,29.6,97,86,55,30.28,29.57,19,2,23,0.56
2013-11-27,69.7,45.5,31.5,67.9,42.9,26.6,96,91,72,30.25,29.55,27,4,30,0.18
2013-11-28,49.1,34.8,25.5,32.5,27.7,23.5,94,78,44,30.51,30.25,11,0,11,0.00
2013-11-29,57.7,39.0,25.9,37.1,30.3,24.3,94,75,35,30.56,30.47,10,0,10,0.00
2013-11-30,53.9,43.4,32.2,39.0,34.1,28.3,89,71,52,30.59,30.35,12,1,13,0.00
2013-12-1,60.2,50.1,41.8,49.2,43.1,37.4,92,77,62,30.35,30.03,7,0,7,0.00
2013-12-2,64.6,52.8,44.7,48.0,45.4,42.0,93,78,46,30.03,29.83,13,1,14,0.00
2013-12-3,65.8,56.4,47.3,57.8,52.7,45.4,96,88,71,29.98,29.88,17,1,17,0.41
2013-12-4,69.3,61.6,57.5,64.6,60.0,56.7,97,94,85,30.10,29.95,8,1,10,0.32
2013-12-5,70.7,64.5,59.1,66.6,63.3,58.2,98,96,86,30.15,30.06,12,1,12,0.06
2013-12-6,80.0,69.6,60.8,70.8,65.4,59.8,98,87,68,30.14,30.03,19,2,19,0.01
2013-12-7,72.2,61.2,46.3,68.1,59.2,44.7,95,93,85,30.36,30.06,13,2,14,0.39
2013-12-8,46.4,43.7,41.2,45.0,42.4,40.2,96,95,94,30.38,30.26,9,1,12,0.18
2013-12-9,56.3,48.7,41.0,55.8,47.8,39.8,98,97,96,30.27,30.06,5,0,5,0.02
2013-12-10,68.8,58.4,40.5,67.8,53.1,29.9,98,83,53,30.34,29.95,28,5,28,0.19
2013-12-11,40.0,36.3,33.0,32.5,31.6,30.4,91,83,73,30.36,30.33,0,0,0,0.00
2013-12-12,54.7,40.2,29.9,36.9,30.6,25.0,96,73,33,30.43,30.29,9,1,14,0.00
2013-12-13,58.7,41.0,26.2,40.7,31.9,24.5,94,74,33,30.42,30.24,10,0,10,0.00
2013-12-14,66.5,55.5,45.2,65.0,51.7,38.6,97,87,74,30.24,29.81,12,1,15,0.94
2013-12-15,57.1,51.3,39.3,56.2,46.4,35.1,97,84,65,30.15,29.77,24,5,26,0.05
2013-12-16,61.2,43.9,30.6,39.8,35.7,29.3,95,76,41,30.24,30.14,12,2,15,0.00
2013-12-17,65.5,49.8,33.9,40.2,36.2,31.6,93,63,34,30.23,30.07,22,4,23,0.00
2013-12-18,56.7,44.8,31.6,36.8,32.5,26.4,93,66,33,30.33,30.10,9,1,10,0.00
2013-12-19,64.1,44.3,28.2,44.4,35.1,26.6,94,75,28,30.39,30.24,10,1,12,0.00
2013-12-20,71.3,52.5,38.4,57.2,47.1,37.1,96,84,54,30.28,30.17,16,1,17,0.00
2013-12-21,79.5,62.9,45.4,68.1,57.6,44.0,97,84,62,30.18,30.02,16,2,19,0.00
2013-12-22,79.7,72.9,66.4,69.3,67.8,64.6,95,84,67,30.10,30.02,21,4,23,0.00
2013-12-23,70.7,64.3,56.3,68.3,62.6,54.9,97,94,91,30.15,30.03,16,2,16,0.37
2013-12-24,57.6,49.1,38.0,54.9,39.1,27.3,96,71,34,30.40,30.11,23,3,23,0.00
2013-12-25,46.8,38.8,28.5,28.9,25.0,20.7,77,58,43,30.53,30.36,12,1,12,0.00
2013-12-26,48.6,42.7,35.8,44.9,35.7,26.6,95,78,53,30.38,30.26,8,0,8,0.08
2013-12-27,55.5,40.7,32.2,36.7,33.2,30.2,96,77,42,30.47,30.33,10,0,11,0.01
2013-12-28,58.1,43.5,29.5,44.4,34.9,27.7,94,75,38,30.42,30.07,8,0,8,0.04
2013-12-29,65.5,54.5,46.4,64.8,51.1,44.4,98,89,71,30.08,29.80,27,5,27,1.15
2013-12-30,56.2,49.0,39.6,47.5,44.5,38.6,96,85,64,30.18,29.99,11,1,11,0.00
2013-12-31,56.3,48.7,39.4,46.2,42.0,36.6,98,79,49,30.38,30.16,17,2,17,0.00
2014-1-1,51.2,44.4,37.0,43.8,40.4,35.6,95,86,72,30.40,30.15,3,0,3,0.00
2014-1-2,52.3,47.7,39.9,51.5,45.7,32.1,97,93,74,30.16,29.70,25,3,29,0.46